Time,TemperatureF,DewpointF,PressureIn,WindDirection,WindDirectionDegrees,WindSpeedMPH,WindSpeedGustMPH,Humidity,HourlyPrecipIn,Conditions,Clouds,dailyrainin,SoftwareType,DateUTC
2013-02-27 00:00:00,38.3,35.3,30.09,ENE,73,15.0,23.0,89,0.00,,,0.00,WeatherCatV1.01B143,2013-02-27 05:00:00,
2013-02-27 00:05:00,38.4,35.7,30.08,ENE,66,20.0,26.0,90,0.00,,,0.01,WeatherCatV1.01B143,2013-02-27 05:05:00,
2013-02-27 00:10:00,38.4,35.4,30.08,ENE,60,20.0,20.0,89,0.00,,,0.01,WeatherCatV1.01B143,2013-02-27 05:10:00,
2013-02-27 00:15:00,38.4,35.7,30.08,ENE,59,13.0,27.0,90,0.00,,,0.01,WeatherCatV1.01B143,2013-02-27 05:15:00,
2013-02-27 00:20:00,38.4,35.7,30.08,ENE,72,14.0,21.0,90,0.00,,,0.01,WeatherCatV1.01B143,2013-02-27 05:20:00,
2013-02-27 00:25:00,38.4,35.7,30.07,ENE,68,18.0,24.0,90,0.00,,,0.02,WeatherCatV1.01B143,2013-02-27 05:25:00,
2013-02-27 00:30:00,38.3,35.9,30.06,ENE,58,18.0,26.0,91,0.00,,,0.02,WeatherCatV1.01B143,2013-02-27 05:30:00,
2013-02-27 00:35:00,38.3,35.9,30.05,East,96,17.0,26.0,91,0.07,,,0.03,WeatherCatV1.01B143,2013-02-27 05:35:00,
2013-02-27 00:38:00,38.2,35.8,30.04,NE,53,21.0,25.0,91,0.07,,,0.03,WeatherCatV1.01B143,2013-02-27 05:38:00,
2013-02-27 00:43:00,38.1,36.0,30.03,East,89,16.0,23.0,92,0.07,,,0.04,WeatherCatV1.01B143,2013-02-27 05:43:00,
2013-02-27 00:48:00,38.1,36.0,30.04,ENE,76,21.0,26.0,92,0.09,,,0.05,WeatherCatV1.01B143,2013-02-27 05:48:00,
2013-02-27 00:53:00,38.1,36.0,30.03,NE,37,8.0,23.0,92,0.09,,,0.05,WeatherCatV1.01B143,2013-02-27 05:53:00,
2013-02-27 00:58:00,38.1,36.0,30.02,NE,48,12.0,24.0,92,0.06,,,0.05,WeatherCatV1.01B143,2013-02-27 05:58:00,
2013-02-27 01:03:00,38.1,36.0,30.02,NNE,29,16.0,24.0,92,0.04,,,0.05,WeatherCatV1.01B143,2013-02-27 06:03:00,
2013-02-27 01:08:00,38.1,36.0,30.01,ENE,67,24.0,25.0,92,0.00,,,0.05,WeatherCatV1.01B143,2013-02-27 06:08:00,
2013-02-27 01:13:00,38.2,36.1,30.02,ENE,72,25.0,27.0,92,0.00,,,0.05,WeatherCatV1.01B143,2013-02-27 06:13:00,
2013-02-27 01:18:00,38.3,36.2,30.02,NE,53,17.0,29.0,92,0.00,,,0.05,WeatherCatV1.01B143,2013-02-27 06:18:00,
2013-02-27 01:23:00,38.3,36.2,30.02,NE,53,14.0,29.0,92,0.00,,,0.05,WeatherCatV1.01B143,2013-02-27 06:23:00,
2013-02-27 01:28:00,38.3,36.2,30.01,ENE,61,13.0,29.0,92,0.00,,,0.05,WeatherCatV1.01B143,2013-02-27 06:28:00,
2013-02-27 01:30:00,38.3,36.2,30.01,ENE,70,26.0,27.0,92,0.00,,,0.05,WeatherCatV1.01B143,2013-02-27 06:30:00,
2013-02-27 01:35:00,38.3,36.2,30.01,ENE,62,10.0,27.0,92,0.00,,,0.05,WeatherCatV1.01B143,2013-02-27 06:35:00,
2013-02-27 01:40:00,38.3,36.2,30.01,ENE,62,19.0,20.0,92,0.00,,,0.05,WeatherCatV1.01B143,2013-02-27 06:40:00,
2013-02-27 01:45:00,38.3,36.2,30.01,NE,41,21.0,23.0,92,0.00,,,0.05,WeatherCatV1.01B143,2013-02-27 06:45:00,
2013-02-27 01:50:00,38.3,36.2,30.01,East,81,20.0,24.0,92,0.00,,,0.05,WeatherCatV1.01B143,2013-02-27 06:50:00,
2013-02-27 01:55:00,38.4,36.3,30.02,NE,35,9.0,25.0,92,0.00,,,0.05,WeatherCatV1.01B143,2013-02-27 06:55:00,
2013-02-27 02:00:00,38.4,36.3,30.02,ENE,76,11.0,20.0,92,0.00,,,0.05,WeatherCatV1.01B143,2013-02-27 07:00:00,
2013-02-27 02:05:00,38.5,36.4,30.01,ENE,58,20.0,26.0,92,0.00,,,0.05,WeatherCatV1.01B143,2013-02-27 07:05:00,
2013-02-27 02:10:00,38.5,36.4,30.00,ENE,62,11.0,22.0,92,0.00,,,0.05,WeatherCatV1.01B143,2013-02-27 07:10:00,
2013-02-27 02:15:00,38.6,36.8,29.99,NE,40,13.0,22.0,93,0.00,,,0.06,WeatherCatV1.01B143,2013-02-27 07:15:00,
2013-02-27 02:20:00,38.7,36.9,29.99,NE,44,12.0,19.0,93,0.12,,,0.07,WeatherCatV1.01B143,2013-02-27 07:20:00,
2013-02-27 02:25:00,38.7,36.9,29.99,ENE,74,16.0,21.0,93,0.15,,,0.08,WeatherCatV1.01B143,2013-02-27 07:25:00,
2013-02-27 02:31:00,38.7,36.9,29.98,ENE,73,16.0,23.0,93,0.13,,,0.09,WeatherCatV1.01B143,2013-02-27 07:31:00,
2013-02-27 02:35:00,38.8,37.2,29.97,ENE,62,14.0,26.0,94,0.10,,,0.10,WeatherCatV1.01B143,2013-02-27 07:35:00,
2013-02-27 02:40:00,38.9,37.3,29.97,North,11,19.0,21.0,94,0.15,,,0.11,WeatherCatV1.01B143,2013-02-27 07:40:00,
2013-02-27 02:45:00,39.0,37.4,29.97,NE,46,8.0,18.0,94,0.14,,,0.12,WeatherCatV1.01B143,2013-02-27 07:45:00,
2013-02-27 02:51:00,39.1,37.5,29.98,ENE,69,9.0,23.0,94,0.18,,,0.14,WeatherCatV1.01B143,2013-02-27 07:51:00,
2013-02-27 02:56:00,39.3,37.7,29.97,ENE,65,15.0,20.0,94,0.18,,,0.16,WeatherCatV1.01B143,2013-02-27 07:56:00,
2013-02-27 03:01:00,39.5,37.9,29.97,NE,35,6.0,21.0,94,0.14,,,0.17,WeatherCatV1.01B143,2013-02-27 08:01:00,
2013-02-27 03:06:00,39.6,38.0,29.97,ENE,74,11.0,21.0,94,0.11,,,0.18,WeatherCatV1.01B143,2013-02-27 08:06:00,
2013-02-27 03:11:00,39.8,38.2,29.97,ENE,64,19.0,21.0,94,0.10,,,0.18,WeatherCatV1.01B143,2013-02-27 08:11:00,
2013-02-27 03:16:00,39.9,38.3,29.96,ENE,73,15.0,19.0,94,0.09,,,0.19,WeatherCatV1.01B143,2013-02-27 08:16:00,
2013-02-27 03:21:00,39.9,38.3,29.95,NE,53,17.0,22.0,94,0.09,,,0.20,WeatherCatV1.01B143,2013-02-27 08:21:00,
2013-02-27 03:26:00,39.9,38.3,29.95,East,84,9.0,23.0,94,0.08,,,0.20,WeatherCatV1.01B143,2013-02-27 08:26:00,
2013-02-27 03:31:00,40.0,38.4,29.95,ENE,64,18.0,29.0,94,0.07,,,0.21,WeatherCatV1.01B143,2013-02-27 08:31:00,
2013-02-27 03:36:00,40.0,38.4,29.94,ENE,64,15.0,20.0,94,0.11,,,0.22,WeatherCatV1.01B143,2013-02-27 08:36:00,
2013-02-27 03:41:00,40.0,38.7,29.94,NE,46,16.0,25.0,95,0.13,,,0.23,WeatherCatV1.01B143,2013-02-27 08:41:00,
2013-02-27 03:46:00,40.6,39.3,29.94,ENE,67,20.0,34.0,95,0.12,,,0.24,WeatherCatV1.01B143,2013-02-27 08:46:00,
2013-02-27 03:51:00,40.9,39.6,29.93,ENE,69,16.0,31.0,95,0.07,,,0.24,WeatherCatV1.01B143,2013-02-27 08:51:00,
2013-02-27 03:56:00,41.2,39.6,29.92,NE,46,12.0,27.0,94,0.04,,,0.24,WeatherCatV1.01B143,2013-02-27 08:56:00,
2013-02-27 04:01:00,41.3,39.7,29.92,ENE,67,15.0,27.0,94,0.00,,,0.24,WeatherCatV1.01B143,2013-02-27 09:01:00,
2013-02-27 04:06:00,41.4,39.8,29.91,ENE,69,21.0,27.0,94,0.00,,,0.24,WeatherCatV1.01B143,2013-02-27 09:06:00,
2013-02-27 04:11:00,41.3,40.0,29.91,ENE,60,20.0,29.0,95,0.00,,,0.24,WeatherCatV1.01B143,2013-02-27 09:11:00,
2013-02-27 04:16:00,41.7,40.4,29.91,NE,48,20.0,31.0,95,0.00,,,0.24,WeatherCatV1.01B143,2013-02-27 09:16:00,
2013-02-27 04:21:00,41.7,40.4,29.90,ENE,74,13.0,25.0,95,0.00,,,0.24,WeatherCatV1.01B143,2013-02-27 09:21:00,
2013-02-27 04:26:00,41.6,40.3,29.90,ENE,69,20.0,28.0,95,0.00,,,0.24,WeatherCatV1.01B143,2013-02-27 09:26:00,
2013-02-27 04:31:00,41.6,40.3,29.90,NE,44,17.0,29.0,95,0.00,,,0.24,WeatherCatV1.01B143,2013-02-27 09:31:00,
2013-02-27 04:36:00,41.6,40.5,29.90,ENE,76,23.0,25.0,96,0.00,,,0.24,WeatherCatV1.01B143,2013-02-27 09:36:00,
2013-02-27 04:41:00,41.7,40.6,29.89,NE,39,14.0,28.0,96,0.00,,,0.24,WeatherCatV1.01B143,2013-02-27 09:41:00,
2013-02-27 04:46:00,41.7,40.6,29.89,ENE,58,15.0,29.0,96,0.00,,,0.25,WeatherCatV1.01B143,2013-02-27 09:46:00,
2013-02-27 04:51:00,41.9,40.8,29.89,NE,52,26.0,30.0,96,0.00,,,0.25,WeatherCatV1.01B143,2013-02-27 09:51:00,
2013-02-27 04:56:00,42.0,40.9,29.88,ENE,62,18.0,32.0,96,0.00,,,0.25,WeatherCatV1.01B143,2013-02-27 09:56:00,
2013-02-27 05:01:00,41.9,40.8,29.88,NE,48,27.0,30.0,96,0.00,,,0.25,WeatherCatV1.01B143,2013-02-27 10:01:00,
2013-02-27 05:06:00,42.0,40.9,29.88,ENE,65,25.0,32.0,96,0.00,,,0.25,WeatherCatV1.01B143,2013-02-27 10:06:00,
2013-02-27 05:11:00,41.9,40.8,29.88,ENE,74,17.0,35.0,96,0.00,,,0.25,WeatherCatV1.01B143,2013-02-27 10:11:00,
2013-02-27 05:16:00,41.9,40.8,29.88,East,85,19.0,29.0,96,0.00,,,0.25,WeatherCatV1.01B143,2013-02-27 10:16:00,
2013-02-27 05:21:00,41.7,40.6,29.88,ESE,116,20.0,33.0,96,0.00,,,0.25,WeatherCatV1.01B143,2013-02-27 10:21:00,
2013-02-27 05:26:00,41.6,40.5,29.88,East,85,24.0,26.0,96,0.00,,,0.25,WeatherCatV1.01B143,2013-02-27 10:26:00,
2013-02-27 05:31:00,41.5,40.4,29.87,NE,55,27.0,31.0,96,0.00,,,0.25,WeatherCatV1.01B143,2013-02-27 10:31:00,
2013-02-27 05:36:00,41.6,40.5,29.86,NE,47,21.0,30.0,96,0.00,,,0.25,WeatherCatV1.01B143,2013-02-27 10:36:00,
2013-02-27 05:41:00,41.6,40.5,29.86,NE,43,24.0,30.0,96,0.00,,,0.25,WeatherCatV1.01B143,2013-02-27 10:41:00,
2013-02-27 05:46:00,41.5,40.4,29.86,ENE,76,26.0,26.0,96,0.00,,,0.25,WeatherCatV1.01B143,2013-02-27 10:46:00,
2013-02-27 05:51:00,41.4,40.3,29.85,NE,54,18.0,28.0,96,0.00,,,0.26,WeatherCatV1.01B143,2013-02-27 10:51:00,
2013-02-27 05:56:00,41.3,40.2,29.85,East,82,23.0,29.0,96,0.00,,,0.26,WeatherCatV1.01B143,2013-02-27 10:56:00,
2013-02-27 06:01:00,41.3,40.5,29.84,East,89,25.0,27.0,97,0.00,,,0.26,WeatherCatV1.01B143,2013-02-27 11:01:00,
2013-02-27 06:06:00,41.3,40.5,29.84,ENE,74,28.0,31.0,97,0.00,,,0.26,WeatherCatV1.01B143,2013-02-27 11:06:00,
2013-02-27 06:11:00,41.3,40.5,29.85,ENE,60,17.0,29.0,97,0.00,,,0.26,WeatherCatV1.01B143,2013-02-27 11:11:00,
2013-02-27 06:16:00,41.1,40.3,29.84,ENE,57,26.0,26.0,97,0.00,,,0.26,WeatherCatV1.01B143,2013-02-27 11:16:00,
2013-02-27 06:21:00,40.9,40.1,29.84,ENE,58,23.0,25.0,97,0.00,,,0.26,WeatherCatV1.01B143,2013-02-27 11:21:00,
2013-02-27 06:26:00,40.9,40.1,29.84,NE,44,20.0,27.0,97,0.00,,,0.26,WeatherCatV1.01B143,2013-02-27 11:26:00,
2013-02-27 06:31:00,40.8,40.0,29.83,ENE,72,19.0,26.0,97,0.00,,,0.27,WeatherCatV1.01B143,2013-02-27 11:31:00,
2013-02-27 06:36:00,40.8,40.0,29.83,East,87,19.0,21.0,97,0.07,,,0.28,WeatherCatV1.01B143,2013-02-27 11:36:00,
2013-02-27 06:41:00,40.8,40.0,29.83,ENE,64,22.0,22.0,97,0.11,,,0.29,WeatherCatV1.01B143,2013-02-27 11:41:00,
2013-02-27 06:46:00,40.8,40.0,29.83,ENE,75,17.0,24.0,97,0.29,,,0.31,WeatherCatV1.01B143,2013-02-27 11:46:00,
2013-02-27 06:51:00,40.9,40.1,29.83,ENE,72,17.0,22.0,97,0.29,,,0.34,WeatherCatV1.01B143,2013-02-27 11:51:00,
2013-02-27 06:56:00,40.9,40.1,29.83,ENE,69,20.0,25.0,97,0.21,,,0.35,WeatherCatV1.01B143,2013-02-27 11:56:00,
2013-02-27 07:01:00,40.9,40.1,29.83,East,89,21.0,24.0,97,0.24,,,0.37,WeatherCatV1.01B143,2013-02-27 12:01:00,
2013-02-27 07:06:00,41.0,40.2,29.83,ENE,75,21.0,26.0,97,0.15,,,0.38,WeatherCatV1.01B143,2013-02-27 12:06:00,
2013-02-27 07:11:00,41.1,40.3,29.83,ENE,57,22.0,25.0,97,0.09,,,0.39,WeatherCatV1.01B143,2013-02-27 12:11:00,
2013-02-27 07:16:00,41.1,40.3,29.83,East,88,22.0,22.0,97,0.19,,,0.41,WeatherCatV1.01B143,2013-02-27 12:16:00,
2013-02-27 07:21:00,41.1,40.3,29.83,ENE,71,23.0,23.0,97,0.33,,,0.43,WeatherCatV1.01B143,2013-02-27 12:21:00,
2013-02-27 07:26:00,41.2,40.4,29.83,NE,56,13.0,24.0,97,0.21,,,0.44,WeatherCatV1.01B143,2013-02-27 12:26:00,
2013-02-27 07:31:00,41.1,40.3,29.82,NE,40,13.0,24.0,97,0.34,,,0.47,WeatherCatV1.01B143,2013-02-27 12:31:00,
2013-02-27 07:36:00,41.2,40.4,29.82,East,79,26.0,26.0,97,0.29,,,0.49,WeatherCatV1.01B143,2013-02-27 12:36:00,
2013-02-27 07:41:00,41.4,40.6,29.81,ENE,78,19.0,27.0,97,0.16,,,0.50,WeatherCatV1.01B143,2013-02-27 12:41:00,
2013-02-27 07:46:00,41.5,40.7,29.82,ENE,74,18.0,28.0,97,0.07,,,0.50,WeatherCatV1.01B143,2013-02-27 12:46:00,
2013-02-27 07:51:00,41.5,41.0,29.82,East,87,20.0,28.0,98,0.04,,,0.50,WeatherCatV1.01B143,2013-02-27 12:51:00,
2013-02-27 07:56:00,41.4,40.9,29.82,ENE,78,19.0,26.0,98,0.04,,,0.51,WeatherCatV1.01B143,2013-02-27 12:56:00,
2013-02-27 08:01:00,41.4,40.9,29.81,East,100,20.0,30.0,98,0.07,,,0.52,WeatherCatV1.01B143,2013-02-27 13:01:00,
2013-02-27 08:06:00,41.4,40.9,29.81,ENE,62,21.0,28.0,98,0.23,,,0.53,WeatherCatV1.01B143,2013-02-27 13:06:00,
2013-02-27 08:11:00,41.3,40.8,29.81,East,93,26.0,28.0,98,0.08,,,0.53,WeatherCatV1.01B143,2013-02-27 13:11:00,
2013-02-27 08:16:00,41.2,40.7,29.80,ENE,76,24.0,30.0,98,0.05,,,0.53,WeatherCatV1.01B143,2013-02-27 13:16:00,
2013-02-27 08:21:00,41.2,40.7,29.80,ENE,74,27.0,35.0,98,0.04,,,0.54,WeatherCatV1.01B143,2013-02-27 13:21:00,
2013-02-27 08:26:00,41.2,40.7,29.80,NE,54,20.0,30.0,98,0.04,,,0.54,WeatherCatV1.01B143,2013-02-27 13:26:00,
2013-02-27 08:31:00,41.2,40.7,29.80,ENE,76,27.0,29.0,98,0.07,,,0.55,WeatherCatV1.01B143,2013-02-27 13:31:00,
2013-02-27 08:36:00,41.1,40.6,29.79,East,82,21.0,30.0,98,0.06,,,0.55,WeatherCatV1.01B143,2013-02-27 13:36:00,
2013-02-27 08:41:00,41.1,40.6,29.78,ENE,66,24.0,33.0,98,0.04,,,0.55,WeatherCatV1.01B143,2013-02-27 13:41:00,
2013-02-27 08:46:00,41.1,40.6,29.78,East,96,29.0,32.0,98,0.00,,,0.55,WeatherCatV1.01B143,2013-02-27 13:46:00,
2013-02-27 08:51:00,41.1,40.6,29.78,East,82,28.0,37.0,98,0.00,,,0.55,WeatherCatV1.01B143,2013-02-27 13:51:00,
2013-02-27 08:56:00,41.1,40.6,29.77,East,79,26.0,33.0,98,0.32,,,0.57,WeatherCatV1.01B143,2013-02-27 13:56:00,
2013-02-27 09:01:00,41.1,40.6,29.77,ENE,78,26.0,37.0,98,0.21,,,0.58,WeatherCatV1.01B143,2013-02-27 14:01:00,
2013-02-27 09:06:00,41.1,40.6,29.77,ENE,62,18.0,33.0,98,0.13,,,0.59,WeatherCatV1.01B143,2013-02-27 14:06:00,
2013-02-27 09:11:00,41.2,40.7,29.77,ENE,68,26.0,31.0,98,0.12,,,0.60,WeatherCatV1.01B143,2013-02-27 14:11:00,
2013-02-27 09:16:00,41.2,40.7,29.76,East,95,24.0,27.0,98,0.06,,,0.60,WeatherCatV1.01B143,2013-02-27 14:16:00,
2013-02-27 09:21:00,41.3,40.8,29.76,ESE,114,23.0,31.0,98,0.04,,,0.61,WeatherCatV1.01B143,2013-02-27 14:21:00,
2013-02-27 09:26:00,41.3,40.8,29.75,East,81,27.0,33.0,98,0.04,,,0.61,WeatherCatV1.01B143,2013-02-27 14:26:00,
2013-02-27 09:31:00,41.3,40.8,29.75,ENE,76,18.0,32.0,98,0.04,,,0.61,WeatherCatV1.01B143,2013-02-27 14:31:00,
2013-02-27 09:36:00,41.3,40.8,29.74,East,84,27.0,32.0,98,0.04,,,0.61,WeatherCatV1.01B143,2013-02-27 14:36:00,
2013-02-27 09:41:00,41.4,40.9,29.74,ENE,57,21.0,32.0,98,0.00,,,0.61,WeatherCatV1.01B143,2013-02-27 14:41:00,
2013-02-27 09:46:00,41.3,40.8,29.74,East,91,23.0,37.0,98,0.00,,,0.62,WeatherCatV1.01B143,2013-02-27 14:46:00,
2013-02-27 09:51:00,41.3,40.8,29.74,NE,48,24.0,35.0,98,0.09,,,0.63,WeatherCatV1.01B143,2013-02-27 14:51:00,
2013-02-27 09:56:00,41.2,40.7,29.73,East,79,27.0,32.0,98,0.17,,,0.64,WeatherCatV1.01B143,2013-02-27 14:56:00,
2013-02-27 10:01:00,41.2,40.7,29.73,ENE,71,31.0,35.0,98,0.07,,,0.64,WeatherCatV1.01B143,2013-02-27 15:01:00,
2013-02-27 10:06:00,41.2,40.7,29.73,NNE,31,25.0,35.0,98,0.04,,,0.64,WeatherCatV1.01B143,2013-02-27 15:06:00,
2013-02-27 10:11:00,41.1,40.6,29.73,ENE,62,29.0,37.0,98,0.00,,,0.64,WeatherCatV1.01B143,2013-02-27 15:11:00,
2013-02-27 10:16:00,41.2,40.7,29.72,NNE,29,28.0,38.0,98,0.00,,,0.64,WeatherCatV1.01B143,2013-02-27 15:16:00,
2013-02-27 10:21:00,41.2,40.7,29.72,East,81,29.0,32.0,98,0.00,,,0.64,WeatherCatV1.01B143,2013-02-27 15:21:00,
2013-02-27 10:26:00,41.2,40.7,29.71,ENE,71,27.0,32.0,98,0.17,,,0.66,WeatherCatV1.01B143,2013-02-27 15:26:00,
2013-02-27 10:31:00,41.2,40.7,29.71,NE,53,29.0,38.0,98,0.10,,,0.66,WeatherCatV1.01B143,2013-02-27 15:31:00,
2013-02-27 10:36:00,41.2,40.7,29.71,ENE,72,39.0,41.0,98,0.05,,,0.66,WeatherCatV1.01B143,2013-02-27 15:36:00,
2013-02-27 10:41:00,41.2,40.7,29.70,ENE,69,28.0,33.0,98,0.04,,,0.66,WeatherCatV1.01B143,2013-02-27 15:41:00,
2013-02-27 10:46:00,41.2,40.7,29.70,ENE,62,31.0,34.0,98,0.00,,,0.66,WeatherCatV1.01B143,2013-02-27 15:46:00,
2013-02-27 10:51:00,41.2,40.7,29.70,ENE,68,30.0,39.0,98,0.00,,,0.66,WeatherCatV1.01B143,2013-02-27 15:51:00,
2013-02-27 10:56:00,41.2,40.7,29.70,ENE,69,33.0,42.0,98,0.00,,,0.66,WeatherCatV1.01B143,2013-02-27 15:56:00,
2013-02-27 11:01:00,41.2,40.7,29.70,East,91,26.0,40.0,98,0.00,,,0.66,WeatherCatV1.01B143,2013-02-27 16:01:00,
2013-02-27 11:06:00,41.2,40.7,29.70,East,94,27.0,38.0,98,0.00,,,0.66,WeatherCatV1.01B143,2013-02-27 16:06:00,
2013-02-27 11:11:00,41.1,40.6,29.70,ENE,62,32.0,36.0,98,0.00,,,0.66,WeatherCatV1.01B143,2013-02-27 16:11:00,
2013-02-27 11:16:00,41.1,40.6,29.70,East,92,26.0,37.0,98,0.00,,,0.66,WeatherCatV1.01B143,2013-02-27 16:16:00,
2013-02-27 11:21:00,41.1,40.6,29.70,East,81,25.0,37.0,98,0.00,,,0.66,WeatherCatV1.01B143,2013-02-27 16:21:00,
2013-02-27 11:26:00,41.0,40.5,29.70,East,86,32.0,36.0,98,0.00,,,0.66,WeatherCatV1.01B143,2013-02-27 16:26:00,
2013-02-27 11:31:00,41.0,40.5,29.70,East,85,27.0,31.0,98,0.00,,,0.66,WeatherCatV1.01B143,2013-02-27 16:31:00,
2013-02-27 11:36:00,40.9,40.4,29.69,East,92,25.0,39.0,98,0.00,,,0.66,WeatherCatV1.01B143,2013-02-27 16:36:00,
2013-02-27 11:41:00,40.9,40.4,29.69,ENE,76,19.0,36.0,98,0.00,,,0.66,WeatherCatV1.01B143,2013-02-27 16:41:00,
2013-02-27 11:46:00,40.8,40.3,29.68,ENE,78,19.0,31.0,98,0.00,,,0.66,WeatherCatV1.01B143,2013-02-27 16:46:00,
2013-02-27 11:51:00,40.9,40.4,29.68,East,84,20.0,35.0,98,0.00,,,0.66,WeatherCatV1.01B143,2013-02-27 16:51:00,
2013-02-27 11:56:00,40.9,40.4,29.68,ENE,61,26.0,36.0,98,0.00,,,0.66,WeatherCatV1.01B143,2013-02-27 16:56:00,
2013-02-27 12:01:00,40.9,40.4,29.67,ENE,69,27.0,34.0,98,0.00,,,0.66,WeatherCatV1.01B143,2013-02-27 17:01:00,
2013-02-27 12:06:00,40.9,40.4,29.67,East,83,28.0,38.0,98,0.00,,,0.66,WeatherCatV1.01B143,2013-02-27 17:06:00,
2013-02-27 12:11:00,40.9,40.4,29.66,East,91,24.0,34.0,98,0.00,,,0.66,WeatherCatV1.01B143,2013-02-27 17:11:00,
2013-02-27 12:16:00,40.9,40.4,29.66,ENE,74,28.0,39.0,98,0.00,,,0.66,WeatherCatV1.01B143,2013-02-27 17:16:00,
2013-02-27 12:21:00,40.9,40.4,29.65,ENE,78,29.0,40.0,98,0.00,,,0.66,WeatherCatV1.01B143,2013-02-27 17:21:00,
2013-02-27 12:26:00,40.8,40.3,29.64,East,81,23.0,32.0,98,0.00,,,0.66,WeatherCatV1.01B143,2013-02-27 17:26:00,
2013-02-27 12:31:00,40.8,40.3,29.64,East,84,43.0,43.0,98,0.00,,,0.66,WeatherCatV1.01B143,2013-02-27 17:31:00,
2013-02-27 12:36:00,40.7,40.2,29.64,ENE,58,32.0,35.0,98,0.00,,,0.66,WeatherCatV1.01B143,2013-02-27 17:36:00,
2013-02-27 12:41:00,40.7,40.2,29.63,East,82,23.0,32.0,98,0.00,,,0.66,WeatherCatV1.01B143,2013-02-27 17:41:00,
2013-02-27 12:46:00,40.7,40.2,29.63,ENE,78,22.0,33.0,98,0.00,,,0.66,WeatherCatV1.01B143,2013-02-27 17:46:00,
2013-02-27 12:51:00,40.6,40.1,29.63,East,88,20.0,29.0,98,0.00,,,0.66,WeatherCatV1.01B143,2013-02-27 17:51:00,
2013-02-27 12:56:00,40.7,40.2,29.62,East,83,25.0,32.0,98,0.00,,,0.66,WeatherCatV1.01B143,2013-02-27 17:56:00,
2013-02-27 13:01:00,40.7,40.2,29.63,ENE,57,18.0,27.0,98,0.00,,,0.66,WeatherCatV1.01B143,2013-02-27 18:01:00,
2013-02-27 13:06:00,40.7,40.2,29.64,ENE,75,22.0,29.0,98,0.00,,,0.66,WeatherCatV1.01B143,2013-02-27 18:06:00,
2013-02-27 13:11:00,40.7,40.2,29.64,East,86,16.0,26.0,98,0.00,,,0.67,WeatherCatV1.01B143,2013-02-27 18:11:00,
2013-02-27 13:16:00,40.7,40.2,29.64,ENE,75,27.0,28.0,98,0.23,,,0.69,WeatherCatV1.01B143,2013-02-27 18:16:00,
2013-02-27 13:21:00,40.7,40.2,29.63,ENE,62,16.0,26.0,98,0.18,,,0.70,WeatherCatV1.01B143,2013-02-27 18:21:00,
2013-02-27 13:26:00,40.8,40.3,29.64,ENE,78,18.0,25.0,98,0.18,,,0.72,WeatherCatV1.01B143,2013-02-27 18:26:00,
2013-02-27 13:31:00,40.9,40.4,29.63,ENE,67,18.0,32.0,98,0.14,,,0.73,WeatherCatV1.01B143,2013-02-27 18:31:00,
2013-02-27 13:36:00,40.9,40.4,29.63,East,92,28.0,33.0,98,0.08,,,0.73,WeatherCatV1.01B143,2013-02-27 18:36:00,
2013-02-27 13:41:00,40.8,40.3,29.62,ENE,75,22.0,28.0,98,0.07,,,0.74,WeatherCatV1.01B143,2013-02-27 18:41:00,
2013-02-27 13:46:00,40.8,40.3,29.64,ENE,78,22.0,24.0,98,0.07,,,0.74,WeatherCatV1.01B143,2013-02-27 18:46:00,
2013-02-27 13:51:00,40.8,40.3,29.64,ENE,74,21.0,24.0,98,0.61,,,0.76,WeatherCatV1.01B143,2013-02-27 18:51:00,
2013-02-27 13:56:00,40.8,40.3,29.64,ENE,68,22.0,25.0,98,0.16,,,0.77,WeatherCatV1.01B143,2013-02-27 18:56:00,
2013-02-27 14:01:00,40.8,40.3,29.64,East,82,10.0,14.0,98,0.25,,,0.79,WeatherCatV1.01B143,2013-02-27 19:01:00,
2013-02-27 14:06:00,40.8,40.3,29.63,East,96,17.0,28.0,98,0.27,,,0.81,WeatherCatV1.01B143,2013-02-27 19:06:00,
2013-02-27 14:11:00,41.0,40.5,29.64,ESE,112,9.0,16.0,98,0.13,,,0.82,WeatherCatV1.01B143,2013-02-27 19:11:00,
2013-02-27 14:16:00,40.9,40.4,29.64,ENE,74,23.0,23.0,98,0.10,,,0.83,WeatherCatV1.01B143,2013-02-27 19:16:00,
2013-02-27 14:21:00,41.0,40.5,29.64,ENE,58,17.0,24.0,98,0.07,,,0.83,WeatherCatV1.01B143,2013-02-27 19:21:00,
2013-02-27 14:26:00,40.8,40.3,29.63,ENE,58,12.0,17.0,98,0.04,,,0.83,WeatherCatV1.01B143,2013-02-27 19:26:00,
2013-02-27 14:31:00,40.8,40.3,29.62,ENE,58,20.0,20.0,98,0.00,,,0.83,WeatherCatV1.01B143,2013-02-27 19:31:00,
2013-02-27 14:36:00,40.8,40.3,29.62,ENE,64,13.0,20.0,98,0.00,,,0.83,WeatherCatV1.01B143,2013-02-27 19:36:00,
2013-02-27 14:41:00,40.8,40.3,29.62,ENE,74,15.0,23.0,98,0.00,,,0.83,WeatherCatV1.01B143,2013-02-27 19:41:00,
2013-02-27 14:46:00,40.8,40.3,29.61,East,80,19.0,22.0,98,0.00,,,0.84,WeatherCatV1.01B143,2013-02-27 19:46:00,
2013-02-27 14:51:00,40.8,40.3,29.61,ENE,72,17.0,24.0,98,0.00,,,0.84,WeatherCatV1.01B143,2013-02-27 19:51:00,
2013-02-27 14:56:00,40.8,40.3,29.61,East,86,15.0,22.0,98,0.00,,,0.84,WeatherCatV1.01B143,2013-02-27 19:56:00,
2013-02-27 15:01:00,40.7,40.2,29.61,East,88,16.0,19.0,98,0.00,,,0.84,WeatherCatV1.01B143,2013-02-27 20:01:00,
2013-02-27 15:06:00,40.7,40.2,29.60,ENE,62,15.0,26.0,98,0.04,,,0.85,WeatherCatV1.01B143,2013-02-27 20:06:00,
2013-02-27 15:11:00,40.6,40.1,29.61,East,84,16.0,18.0,98,0.04,,,0.85,WeatherCatV1.01B143,2013-02-27 20:11:00,
2013-02-27 15:16:00,40.6,40.1,29.60,NE,48,16.0,18.0,98,0.04,,,0.85,WeatherCatV1.01B143,2013-02-27 20:16:00,
2013-02-27 15:21:00,40.6,40.1,29.61,ENE,69,15.0,20.0,98,0.00,,,0.85,WeatherCatV1.01B143,2013-02-27 20:21:00,
2013-02-27 15:26:00,40.6,40.1,29.60,East,84,14.0,20.0,98,0.00,,,0.86,WeatherCatV1.01B143,2013-02-27 20:26:00,
2013-02-27 15:31:00,40.6,40.1,29.60,ENE,62,15.0,18.0,98,0.00,,,0.86,WeatherCatV1.01B143,2013-02-27 20:31:00,
2013-02-27 15:36:00,40.7,40.2,29.60,ENE,69,17.0,19.0,98,0.00,,,0.86,WeatherCatV1.01B143,2013-02-27 20:36:00,
2013-02-27 15:41:00,40.7,40.2,29.59,East,85,17.0,20.0,98,0.00,,,0.86,WeatherCatV1.01B143,2013-02-27 20:41:00,
2013-02-27 15:46:00,40.8,40.3,29.60,East,84,17.0,18.0,98,0.00,,,0.86,WeatherCatV1.01B143,2013-02-27 20:46:00,
2013-02-27 15:51:00,40.8,40.3,29.59,ENE,75,16.0,17.0,98,0.00,,,0.86,WeatherCatV1.01B143,2013-02-27 20:51:00,
2013-02-27 15:56:00,40.9,40.4,29.59,NE,48,13.0,20.0,98,0.00,,,0.86,WeatherCatV1.01B143,2013-02-27 20:56:00,
2013-02-27 16:01:00,40.9,40.4,29.58,NE,44,18.0,19.0,98,0.00,,,0.86,WeatherCatV1.01B143,2013-02-27 21:01:00,
2013-02-27 16:06:00,41.0,40.5,29.58,ENE,74,11.0,16.0,98,0.00,,,0.86,WeatherCatV1.01B143,2013-02-27 21:06:00,
2013-02-27 16:11:00,41.1,40.6,29.58,East,81,11.0,16.0,98,0.00,,,0.86,WeatherCatV1.01B143,2013-02-27 21:11:00,
2013-02-27 16:16:00,41.2,40.7,29.58,ENE,65,9.0,17.0,98,0.00,,,0.86,WeatherCatV1.01B143,2013-02-27 21:16:00,
2013-02-27 16:21:00,41.3,40.8,29.59,ENE,71,11.0,13.0,98,0.00,,,0.86,WeatherCatV1.01B143,2013-02-27 21:21:00,
2013-02-27 16:26:00,41.3,40.8,29.59,ENE,67,15.0,17.0,98,0.00,,,0.86,WeatherCatV1.01B143,2013-02-27 21:26:00,
2013-02-27 16:31:00,41.2,40.7,29.59,ENE,74,11.0,13.0,98,0.00,,,0.86,WeatherCatV1.01B143,2013-02-27 21:31:00,
2013-02-27 16:36:00,41.2,40.7,29.59,ENE,73,7.0,13.0,98,0.00,,,0.86,WeatherCatV1.01B143,2013-02-27 21:36:00,
2013-02-27 16:41:00,41.2,40.7,29.60,ENE,67,12.0,12.0,98,0.00,,,0.86,WeatherCatV1.01B143,2013-02-27 21:41:00,
2013-02-27 16:46:00,41.2,40.7,29.59,East,83,6.0,11.0,98,0.00,,,0.86,WeatherCatV1.01B143,2013-02-27 21:46:00,
2013-02-27 16:51:00,41.1,40.6,29.59,ENE,67,6.0,11.0,98,0.00,,,0.86,WeatherCatV1.01B143,2013-02-27 21:51:00,
2013-02-27 16:56:00,41.2,40.7,29.59,NE,46,10.0,14.0,98,0.00,,,0.86,WeatherCatV1.01B143,2013-02-27 21:56:00,
2013-02-27 17:01:00,41.2,40.7,29.58,East,84,14.0,15.0,98,0.00,,,0.86,WeatherCatV1.01B143,2013-02-27 22:01:00,
2013-02-27 17:06:00,41.3,40.8,29.58,NE,54,8.0,14.0,98,0.00,,,0.86,WeatherCatV1.01B143,2013-02-27 22:06:00,
2013-02-27 17:11:00,41.1,40.6,29.58,NE,54,7.0,10.0,98,0.00,,,0.86,WeatherCatV1.01B143,2013-02-27 22:11:00,
2013-02-27 17:17:00,41.0,40.5,29.58,ENE,62,8.0,10.0,98,0.00,,,0.86,WeatherCatV1.01B143,2013-02-27 22:17:00,
2013-02-27 17:22:00,41.0,40.5,29.59,ENE,58,4.0,11.0,98,0.00,,,0.86,WeatherCatV1.01B143,2013-02-27 22:22:00,
2013-02-27 17:27:00,41.0,40.5,29.59,East,86,7.0,10.0,98,0.00,,,0.86,WeatherCatV1.01B143,2013-02-27 22:27:00,
2013-02-27 17:32:00,40.9,40.4,29.59,ENE,67,7.0,10.0,98,0.00,,,0.86,WeatherCatV1.01B143,2013-02-27 22:32:00,
2013-02-27 17:37:00,40.9,40.4,29.59,NE,51,9.0,10.0,98,0.00,,,0.86,WeatherCatV1.01B143,2013-02-27 22:37:00,
2013-02-27 17:42:00,41.0,40.5,29.59,ENE,65,4.0,8.0,98,0.00,,,0.86,WeatherCatV1.01B143,2013-02-27 22:42:00,
2013-02-27 17:47:00,40.9,40.4,29.59,NE,55,9.0,11.0,98,0.00,,,0.86,WeatherCatV1.01B143,2013-02-27 22:47:00,
2013-02-27 17:52:00,41.0,40.5,29.59,ENE,60,7.0,9.0,98,0.00,,,0.86,WeatherCatV1.01B143,2013-02-27 22:52:00,
2013-02-27 17:57:00,41.0,40.5,29.58,ENE,61,4.0,12.0,98,0.00,,,0.86,WeatherCatV1.01B143,2013-02-27 22:57:00,
2013-02-27 18:02:00,41.0,40.5,29.58,ESE,123,5.0,10.0,98,0.00,,,0.86,WeatherCatV1.01B143,2013-02-27 23:02:00,
2013-02-27 18:07:00,40.9,40.4,29.58,ENE,62,5.0,10.0,98,0.00,,,0.86,WeatherCatV1.01B143,2013-02-27 23:07:00,
2013-02-27 18:12:00,41.0,40.5,29.59,NNE,31,3.0,7.0,98,0.00,,,0.86,WeatherCatV1.01B143,2013-02-27 23:12:00,
2013-02-27 18:17:00,41.1,40.6,29.59,East,86,4.0,6.0,98,0.00,,,0.86,WeatherCatV1.01B143,2013-02-27 23:17:00,
2013-02-27 18:22:00,41.1,40.8,29.59,East,81,2.0,3.0,99,0.00,,,0.86,WeatherCatV1.01B143,2013-02-27 23:22:00,
2013-02-27 18:27:00,40.9,40.6,29.59,East,84,5.0,5.0,99,0.00,,,0.86,WeatherCatV1.01B143,2013-02-27 23:27:00,
2013-02-27 18:32:00,40.8,40.3,29.59,ENE,74,4.0,5.0,98,0.00,,,0.86,WeatherCatV1.01B143,2013-02-27 23:32:00,
2013-02-27 18:37:00,40.7,40.4,29.59,East,79,3.0,3.0,99,0.00,,,0.86,WeatherCatV1.01B143,2013-02-27 23:37:00,
2013-02-27 18:42:00,40.6,40.1,29.59,East,82,1.0,4.0,98,0.00,,,0.86,WeatherCatV1.01B143,2013-02-27 23:42:00,
2013-02-27 18:47:00,40.6,40.3,29.59,ENE,74,3.0,4.0,99,0.00,,,0.86,WeatherCatV1.01B143,2013-02-27 23:47:00,
2013-02-27 18:52:00,40.8,40.5,29.59,ENE,64,1.0,3.0,99,0.00,,,0.86,WeatherCatV1.01B143,2013-02-27 23:52:00,
2013-02-27 18:57:00,41.0,40.7,29.59,NE,55,0.0,1.0,99,0.00,,,0.86,WeatherCatV1.01B143,2013-02-27 23:57:00,
2013-02-27 19:02:00,41.1,40.8,29.59,ENE,61,0.0,3.0,99,0.00,,,0.86,WeatherCatV1.01B143,2013-02-28 00:02:00,
2013-02-27 19:07:00,41.3,41.0,29.59,North,10,1.0,1.0,99,0.00,,,0.86,WeatherCatV1.01B143,2013-02-28 00:07:00,
2013-02-27 19:12:00,41.2,40.9,29.59,ESE,123,1.0,1.0,99,0.00,,,0.86,WeatherCatV1.01B143,2013-02-28 00:12:00,
2013-02-27 19:17:00,41.4,41.1,29.59,NNE,26,0.0,1.0,99,0.00,,,0.86,WeatherCatV1.01B143,2013-02-28 00:17:00,
2013-02-27 19:22:00,41.5,41.2,29.59,NNE,26,0.0,0.0,99,0.00,,,0.86,WeatherCatV1.01B143,2013-02-28 00:22:00,
2013-02-27 19:27:00,41.4,41.1,29.59,East,89,0.0,0.0,99,0.00,,,0.86,WeatherCatV1.01B143,2013-02-28 00:27:00,
2013-02-27 19:32:00,41.4,41.1,29.59,NE,34,0.0,0.0,99,0.00,,,0.86,WeatherCatV1.01B143,2013-02-28 00:32:00,
2013-02-27 19:37:00,41.6,41.3,29.59,ENE,58,0.0,1.0,99,0.00,,,0.86,WeatherCatV1.01B143,2013-02-28 00:37:00,
2013-02-27 19:42:00,41.5,41.2,29.59,ENE,72,0.0,0.0,99,0.00,,,0.86,WeatherCatV1.01B143,2013-02-28 00:42:00,
2013-02-27 19:47:00,41.4,41.1,29.59,ENE,64,0.0,0.0,99,0.00,,,0.86,WeatherCatV1.01B143,2013-02-28 00:47:00,
2013-02-27 19:52:00,41.2,40.9,29.59,East,84,0.0,0.0,99,0.00,,,0.87,WeatherCatV1.01B143,2013-02-28 00:52:00,
2013-02-27 19:57:00,41.2,40.9,29.59,ENE,67,0.0,0.0,99,0.00,,,0.87,WeatherCatV1.01B143,2013-02-28 00:57:00,
2013-02-27 20:02:00,41.2,40.9,29.59,ENE,74,0.0,0.0,99,0.00,,,0.87,WeatherCatV1.01B143,2013-02-28 01:02:00,
2013-02-27 20:07:00,41.1,40.8,29.59,ENE,76,0.0,0.0,99,0.00,,,0.87,WeatherCatV1.01B143,2013-02-28 01:07:00,
2013-02-27 20:12:00,40.9,40.6,29.59,ESE,102,0.0,0.0,99,0.00,,,0.87,WeatherCatV1.01B143,2013-02-28 01:12:00,
2013-02-27 20:17:00,41.0,40.7,29.59,SE,131,0.0,1.0,99,0.00,,,0.87,WeatherCatV1.01B143,2013-02-28 01:17:00,
2013-02-27 20:22:00,40.9,40.6,29.59,ESE,123,0.0,0.0,99,0.00,,,0.87,WeatherCatV1.01B143,2013-02-28 01:22:00,
2013-02-27 20:27:00,40.9,40.6,29.60,South,178,0.0,0.0,99,0.00,,,0.87,WeatherCatV1.01B143,2013-02-28 01:27:00,
2013-02-27 20:32:00,40.9,40.6,29.60,SE,127,0.0,0.0,99,0.00,,,0.87,WeatherCatV1.01B143,2013-02-28 01:32:00,
2013-02-27 20:37:00,40.9,40.6,29.60,SE,140,0.0,0.0,99,0.00,,,0.87,WeatherCatV1.01B143,2013-02-28 01:37:00,
2013-02-27 20:42:00,41.0,40.7,29.60,SE,138,0.0,0.0,99,0.00,,,0.87,WeatherCatV1.01B143,2013-02-28 01:42:00,
2013-02-27 20:47:00,41.0,40.7,29.60,SE,134,0.0,1.0,99,0.00,,,0.87,WeatherCatV1.01B143,2013-02-28 01:47:00,
2013-02-27 20:52:00,40.9,40.6,29.60,SE,145,0.0,1.0,99,0.00,,,0.87,WeatherCatV1.01B143,2013-02-28 01:52:00,
2013-02-27 20:57:00,40.9,40.6,29.60,South,184,0.0,1.0,99,0.00,,,0.87,WeatherCatV1.01B143,2013-02-28 01:57:00,
2013-02-27 21:02:00,40.8,40.5,29.60,South,183,0.0,1.0,99,0.00,,,0.87,WeatherCatV1.01B143,2013-02-28 02:02:00,
2013-02-27 21:07:00,40.8,40.5,29.60,SSE,147,0.0,1.0,99,0.00,,,0.87,WeatherCatV1.01B143,2013-02-28 02:07:00,
2013-02-27 21:12:00,40.7,40.4,29.60,SSE,157,1.0,1.0,99,0.00,,,0.87,WeatherCatV1.01B143,2013-02-28 02:12:00,
2013-02-27 21:17:00,40.5,40.2,29.60,SSW,200,2.0,2.0,99,0.00,,,0.87,WeatherCatV1.01B143,2013-02-28 02:17:00,
2013-02-27 21:22:00,40.4,40.1,29.60,South,183,2.0,3.0,99,0.00,,,0.87,WeatherCatV1.01B143,2013-02-28 02:22:00,
2013-02-27 21:27:00,40.4,40.1,29.60,SSW,192,3.0,3.0,99,0.00,,,0.87,WeatherCatV1.01B143,2013-02-28 02:27:00,
2013-02-27 21:32:00,40.3,40.0,29.60,SSW,193,0.0,2.0,99,0.00,,,0.87,WeatherCatV1.01B143,2013-02-28 02:32:00,
2013-02-27 21:37:00,40.5,40.2,29.60,West,264,4.0,7.0,99,0.00,,,0.87,WeatherCatV1.01B143,2013-02-28 02:37:00,
2013-02-27 21:42:00,40.3,40.0,29.60,West,261,6.0,8.0,99,0.00,,,0.87,WeatherCatV1.01B143,2013-02-28 02:42:00,
2013-02-27 21:47:00,40.3,40.0,29.60,West,273,7.0,11.0,99,0.00,,,0.87,WeatherCatV1.01B143,2013-02-28 02:47:00,
2013-02-27 21:52:00,40.2,39.9,29.60,West,273,7.0,10.0,99,0.00,,,0.87,WeatherCatV1.01B143,2013-02-28 02:52:00,
2013-02-27 21:57:00,40.1,39.8,29.60,West,274,9.0,13.0,99,0.00,,,0.87,WeatherCatV1.01B143,2013-02-28 02:57:00,
2013-02-27 22:02:00,40.0,39.7,29.60,West,271,11.0,15.0,99,0.00,,,0.87,WeatherCatV1.01B143,2013-02-28 03:02:00,
2013-02-27 22:07:00,39.9,39.6,29.60,WSW,256,10.0,13.0,99,0.00,,,0.87,WeatherCatV1.01B143,2013-02-28 03:07:00,
2013-02-27 22:12:00,39.7,39.4,29.60,West,271,18.0,23.0,99,0.00,,,0.87,WeatherCatV1.01B143,2013-02-28 03:12:00,
2013-02-27 22:17:00,39.3,39.0,29.60,West,269,19.0,21.0,99,0.00,,,0.87,WeatherCatV1.01B143,2013-02-28 03:17:00,
2013-02-27 22:22:00,39.1,38.8,29.60,WNW,290,15.0,23.0,99,0.00,,,0.87,WeatherCatV1.01B143,2013-02-28 03:22:00,
2013-02-27 22:27:00,38.9,38.6,29.60,West,273,17.0,21.0,99,0.00,,,0.87,WeatherCatV1.01B143,2013-02-28 03:27:00,
2013-02-27 22:33:00,38.7,38.4,29.61,West,275,14.0,22.0,99,0.00,,,0.87,WeatherCatV1.01B143,2013-02-28 03:33:00,
2013-02-27 22:38:00,38.7,38.4,29.61,West,265,10.0,16.0,99,0.00,,,0.87,WeatherCatV1.01B143,2013-02-28 03:38:00,
2013-02-27 22:43:00,38.7,38.4,29.61,WNW,294,13.0,16.0,99,0.00,,,0.87,WeatherCatV1.01B143,2013-02-28 03:43:00,
2013-02-27 22:48:00,38.9,38.6,29.61,WNW,283,9.0,12.0,99,0.00,,,0.87,WeatherCatV1.01B143,2013-02-28 03:48:00,
2013-02-27 22:53:00,38.9,38.6,29.61,WNW,285,18.0,19.0,99,0.00,,,0.87,WeatherCatV1.01B143,2013-02-28 03:53:00,
2013-02-27 22:58:00,39.0,38.7,29.61,WNW,297,9.0,13.0,99,0.00,,,0.87,WeatherCatV1.01B143,2013-02-28 03:58:00,
2013-02-27 23:03:00,39.1,38.8,29.61,WNW,289,6.0,9.0,99,0.00,,,0.87,WeatherCatV1.01B143,2013-02-28 04:03:00,
2013-02-27 23:08:00,39.2,38.9,29.61,West,279,10.0,12.0,99,0.00,,,0.87,WeatherCatV1.01B143,2013-02-28 04:08:00,
2013-02-27 23:13:00,39.3,39.0,29.61,West,281,4.0,10.0,99,0.00,,,0.87,WeatherCatV1.01B143,2013-02-28 04:13:00,
2013-02-27 23:18:00,39.5,39.2,29.61,West,266,7.0,10.0,99,0.00,,,0.87,WeatherCatV1.01B143,2013-02-28 04:18:00,
2013-02-27 23:23:00,39.4,39.1,29.61,WNW,284,9.0,13.0,99,0.00,,,0.87,WeatherCatV1.01B143,2013-02-28 04:23:00,
2013-02-27 23:28:00,39.5,39.2,29.61,West,269,6.0,14.0,99,0.00,,,0.87,WeatherCatV1.01B143,2013-02-28 04:28:00,
2013-02-27 23:33:00,39.5,39.2,29.61,West,281,10.0,13.0,99,0.00,,,0.87,WeatherCatV1.01B143,2013-02-28 04:33:00,
2013-02-27 23:38:00,39.6,39.3,29.61,WNW,292,14.0,14.0,99,0.00,,,0.87,WeatherCatV1.01B143,2013-02-28 04:38:00,
2013-02-27 23:43:00,39.8,39.5,29.60,West,274,7.0,12.0,99,0.00,,,0.87,WeatherCatV1.01B143,2013-02-28 04:43:00,
2013-02-27 23:48:00,39.7,39.4,29.61,West,277,9.0,13.0,99,0.00,,,0.87,WeatherCatV1.01B143,2013-02-28 04:48:00,
2013-02-27 23:53:00,39.6,39.3,29.61,West,280,10.0,12.0,99,0.00,,,0.87,WeatherCatV1.01B143,2013-02-28 04:53:00,
2013-02-27 23:59:00,39.8,39.5,29.61,West,277,10.0,13.0,99,0.00,,,0.87,WeatherCatV1.01B143,2013-02-28 04:59:00,